Time;durP1;ratioP1;P1;durP2;ratioP2;P2;SDS_P1;SDS_P2;PMS_P1;PMS_P2;Temp;Humidity;BMP_temperature;BMP_pressure;BME280_temperature;BME280_humidity;BME280_pressure;Samples;Min_cycle;Max_cycle;Signal;HPM_P1;HPM_P2
2022/11/26 00:00:18;;;;;;;21.70;7.00;;;9.20;99.90;;;;;;5086468;28;20486;-64
2022/11/26 00:02:45;;;;;;;21.20;7.57;;;9.30;99.90;;;;;;5086994;28;20463;-64
2022/11/26 00:05:13;;;;;;;16.83;7.83;;;9.20;99.90;;;;;;5087902;28;20448;-64
2022/11/26 00:07:43;;;;;;;17.23;7.00;;;9.20;99.90;;;;;;5090558;28;20458;-64
2022/11/26 00:10:18;;;;;;;20.83;6.80;;;9.20;99.90;;;;;;5090314;28;20424;-64
2022/11/26 00:12:45;;;;;;;16.77;8.63;;;9.20;99.90;;;;;;5089698;28;20492;-64
2022/11/26 00:15:18;;;;;;;16.63;7.27;;;9.20;99.90;;;;;;5090215;28;20443;-64
2022/11/26 00:17:45;;;;;;;19.53;7.20;;;9.20;99.90;;;;;;5088938;28;20435;-64
2022/11/26 00:20:12;;;;;;;23.23;10.17;;;9.20;99.90;;;;;;5085726;28;20484;-63
2022/11/26 00:22:41;;;;;;;23.07;7.23;;;9.20;99.90;;;;;;5088084;28;20471;-64
2022/11/26 00:25:15;;;;;;;19.30;6.90;;;9.10;99.90;;;;;;5089959;28;20438;-64
2022/11/26 00:27:41;;;;;;;26.73;9.03;;;9.10;99.90;;;;;;5091328;28;20422;-64
2022/11/26 00:30:17;;;;;;;12.73;6.73;;;9.10;99.90;;;;;;5090310;28;20445;-64
2022/11/26 00:32:46;;;;;;;17.07;7.40;;;9.20;99.90;;;;;;5092542;28;20473;-64
2022/11/26 00:35:13;;;;;;;18.13;7.23;;;9.20;99.90;;;;;;5099308;28;20438;-64
2022/11/26 00:37:44;;;;;;;17.53;7.43;;;9.20;99.90;;;;;;5096829;28;20459;-64
2022/11/26 00:40:22;;;;;;;22.93;7.00;;;9.20;99.90;;;;;;5095437;28;20462;-64
2022/11/26 00:42:49;;;;;;;12.67;6.93;;;9.10;99.90;;;;;;5095734;28;20449;-64
2022/11/26 00:45:20;;;;;;;21.23;8.33;;;9.00;99.90;;;;;;5095729;28;20446;-64
2022/11/26 00:47:47;;;;;;;16.80;7.00;;;9.00;99.90;;;;;;5098361;28;20424;-64
2022/11/26 00:50:16;;;;;;;20.30;8.20;;;8.90;99.90;;;;;;5100005;28;20437;-63
2022/11/26 00:52:43;;;;;;;19.00;8.63;;;8.80;99.90;;;;;;5098081;28;20462;-64
2022/11/26 00:55:19;;;;;;;17.90;7.97;;;8.80;99.90;;;;;;5096443;28;20449;-64
2022/11/26 00:57:45;;;;;;;20.87;8.27;;;8.80;99.90;;;;;;5096736;28;20429;-64
2022/11/26 01:00:20;;;;;;;19.27;9.67;;;8.80;99.90;;;;;;5096084;28;20546;-64
2022/11/26 01:02:47;;;;;;;18.10;8.03;;;8.70;99.90;;;;;;5091118;28;20475;-64
2022/11/26 01:05:14;;;;;;;16.37;8.60;;;8.70;99.90;;;;;;5090202;28;20441;-64
2022/11/26 01:07:41;;;;;;;17.17;8.50;;;8.70;99.90;;;;;;5089937;28;20457;-64
2022/11/26 01:10:16;;;;;;;19.73;8.93;;;8.70;99.90;;;;;;5091701;28;20467;-63
2022/11/26 01:12:43;;;;;;;14.80;7.20;;;8.70;99.90;;;;;;5094322;28;20469;-63
2022/11/26 01:15:10;;;;;;;18.93;7.90;;;8.70;99.90;;;;;;5094796;28;20447;-64
2022/11/26 01:17:38;;;;;;;18.03;8.10;;;8.70;99.90;;;;;;5095069;28;20448;-63
2022/11/26 01:20:20;;;;;;;14.90;8.57;;;8.70;99.90;;;;;;5093939;28;20478;-64
2022/11/26 01:22:47;;;;;;;14.87;7.20;;;8.70;99.90;;;;;;5091612;28;20474;-64
2022/11/26 01:25:13;;;;;;;26.37;8.60;;;8.70;99.90;;;;;;5089995;28;20471;-64
2022/11/26 01:27:40;;;;;;;25.37;8.20;;;8.70;99.90;;;;;;5089114;28;20456;-64
2022/11/26 01:30:14;;;;;;;15.30;7.43;;;8.70;99.90;;;;;;5088508;28;20446;-64
2022/11/26 01:32:42;;;;;;;17.10;6.73;;;8.80;99.90;;;;;;5079152;28;20474;-64
2022/11/26 01:35:10;;;;;;;17.77;8.97;;;8.80;99.90;;;;;;5081953;28;20969;-64
2022/11/26 01:37:37;;;;;;;18.90;7.40;;;8.80;99.90;;;;;;5087382;28;20455;-64
2022/11/26 01:40:04;;;;;;;26.67;9.10;;;8.80;99.90;;;;;;5086340;28;20478;-64
2022/11/26 01:42:40;;;;;;;15.53;7.17;;;8.80;99.90;;;;;;5087446;28;20988;-64
2022/11/26 01:45:14;;;;;;;18.63;7.20;;;8.80;99.90;;;;;;5086800;28;20436;-64
2022/11/26 01:47:43;;;;;;;21.57;7.53;;;8.90;99.90;;;;;;5086725;28;20979;-64
2022/11/26 01:50:45;;;;;;;23.10;8.40;;;8.90;99.90;;;;;;5085700;28;20447;-63
2022/11/26 01:53:16;;;;;;;15.57;6.90;;;8.90;99.90;;;;;;5087351;28;20467;-63
2022/11/26 01:55:47;;;;;;;23.40;10.00;;;8.90;99.90;;;;;;5087244;28;20454;-63
2022/11/26 01:58:20;;;;;;;19.10;9.10;;;8.90;99.90;;;;;;5087657;28;20426;-64
2022/11/26 02:00:48;;;;;;;18.70;8.10;;;8.90;99.90;;;;;;5086608;28;20470;-63
2022/11/26 02:03:17;;;;;;;20.53;8.10;;;8.90;99.90;;;;;;5087228;28;20474;-63
2022/11/26 02:05:51;;;;;;;15.30;7.17;;;8.90;99.90;;;;;;5085887;28;20518;-63
2022/11/26 02:08:19;;;;;;;18.20;6.40;;;8.90;99.90;;;;;;5085952;28;20455;-63
2022/11/26 02:10:45;;;;;;;12.90;6.57;;;8.90;99.90;;;;;;5085482;28;20833;-63
2022/11/26 02:13:12;;;;;;;21.00;6.80;;;8.80;99.60;;;;;;5085723;28;20468;-63
2022/11/26 02:15:48;;;;;;;16.33;6.30;;;8.80;99.50;;;;;;5085450;28;20445;-64
2022/11/26 02:18:16;;;;;;;15.50;6.33;;;8.80;99.40;;;;;;5085472;28;20431;-63
2022/11/26 02:20:53;;;;;;;14.90;6.60;;;8.80;99.50;;;;;;5085659;28;20561;-63
2022/11/26 02:23:57;;;;;;;17.43;6.67;;;8.80;99.60;;;;;;5086005;28;20466;-63
2022/11/26 02:26:49;;;;;;;17.60;7.10;;;8.80;99.70;;;;;;5085563;28;20458;-63
2022/11/26 02:29:23;;;;;;;15.17;7.17;;;8.80;99.80;;;;;;5085169;28;20428;-63
2022/11/26 02:31:59;;;;;;;17.50;7.60;;;8.80;99.80;;;;;;5086102;28;20431;-64
2022/11/26 02:34:35;;;;;;;17.30;8.00;;;8.80;99.70;;;;;;5086347;28;20430;-64
2022/11/26 02:37:07;;;;;;;18.37;7.60;;;8.80;99.70;;;;;;5084382;28;20458;-64
2022/11/26 02:39:33;;;;;;;20.13;7.47;;;8.80;99.80;;;;;;5082569;28;20441;-63
2022/11/26 02:42:03;;;;;;;24.80;7.27;;;8.80;99.80;;;;;;5084861;28;20446;-64
2022/11/26 02:44:36;;;;;;;21.40;8.10;;;8.80;99.80;;;;;;5085203;28;20450;-64
2022/11/26 02:47:09;;;;;;;18.10;6.70;;;8.80;99.90;;;;;;5084839;28;20432;-63
2022/11/26 02:49:38;;;;;;;11.67;5.53;;;8.70;99.90;;;;;;5085811;28;20424;-64
2022/11/26 02:52:07;;;;;;;18.50;6.47;;;8.70;99.90;;;;;;5085414;28;20438;-64
2022/11/26 02:54:36;;;;;;;13.03;6.20;;;8.70;99.90;;;;;;5086459;28;20478;-63
2022/11/26 02:57:06;;;;;;;11.87;5.47;;;8.70;99.80;;;;;;5086143;28;20439;-63
2022/11/26 02:59:33;;;;;;;16.73;7.30;;;8.60;99.70;;;;;;5085030;28;20435;-63
2022/11/26 03:02:06;;;;;;;13.23;5.97;;;8.60;99.50;;;;;;5084641;28;20486;-64
2022/11/26 03:04:39;;;;;;;12.20;6.17;;;8.60;99.30;;;;;;5084894;28;20438;-64
2022/11/26 03:07:07;;;;;;;14.27;5.80;;;8.60;99.20;;;;;;5085087;28;20446;-64
2022/11/26 03:09:42;;;;;;;18.50;5.73;;;8.60;99.20;;;;;;5086017;28;20441;-63
2022/11/26 03:12:09;;;;;;;18.90;6.03;;;8.60;99.20;;;;;;5085264;28;20466;-63
2022/11/26 03:14:35;;;;;;;23.57;7.40;;;8.60;99.40;;;;;;5085229;28;20456;-64
2022/11/26 03:17:02;;;;;;;15.83;5.80;;;8.50;99.40;;;;;;5085959;28;20458;-64
2022/11/26 03:19:30;;;;;;;18.33;6.00;;;8.50;99.60;;;;;;5085194;28;20443;-63
2022/11/26 03:21:57;;;;;;;14.57;5.87;;;8.60;99.90;;;;;;5084934;28;20568;-63
2022/11/26 03:24:24;;;;;;;25.00;6.30;;;8.50;99.90;;;;;;5078975;28;20635;-63
2022/11/26 03:26:51;;;;;;;16.00;5.40;;;8.50;99.90;;;;;;5074313;28;20455;-63
2022/11/26 03:29:17;;;;;;;15.67;5.73;;;8.50;99.90;;;;;;5084886;28;20778;-63
2022/11/26 03:31:44;;;;;;;17.07;5.67;;;8.60;99.90;;;;;;5085932;28;20449;-63
2022/11/26 03:34:11;;;;;;;16.63;5.90;;;8.60;99.90;;;;;;5085563;28;20461;-63
2022/11/26 03:36:39;;;;;;;11.50;5.53;;;8.60;99.80;;;;;;5048790;28;1053142;-63
2022/11/26 03:39:06;;;;;;;28.53;7.00;;;8.60;99.90;;;;;;5086724;28;20207;-63
2022/11/26 03:41:32;;;;;;;24.20;6.50;;;8.60;99.80;;;;;;5085988;28;20485;-63
2022/11/26 03:43:59;;;;;;;17.20;6.30;;;8.60;99.60;;;;;;5086062;28;20474;-64
2022/11/26 03:46:26;;;;;;;19.03;7.33;;;8.50;99.60;;;;;;5085485;28;20946;-63
2022/11/26 03:48:53;;;;;;;11.47;6.43;;;8.50;99.60;;;;;;5085344;28;20452;-63
2022/11/26 03:51:19;;;;;;;15.03;6.30;;;8.50;99.60;;;;;;5083513;28;20954;-63
2022/11/26 03:53:47;;;;;;;19.43;7.87;;;8.50;99.70;;;;;;5074248;28;20482;-63
2022/11/26 03:56:14;;;;;;;17.03;7.33;;;8.50;99.70;;;;;;5085758;28;20455;-63
2022/11/26 03:58:41;;;;;;;22.17;6.87;;;8.50;99.80;;;;;;5086990;28;20450;-63
2022/11/26 04:01:09;;;;;;;22.57;7.27;;;8.50;99.90;;;;;;5085954;28;20477;-63
2022/11/26 04:03:35;;;;;;;17.30;7.00;;;8.50;99.90;;;;;;5086305;28;20466;-63
2022/11/26 04:06:03;;;;;;;22.17;7.87;;;8.50;99.90;;;;;;5085407;28;20460;-64
2022/11/26 04:08:30;;;;;;;20.00;8.00;;;8.50;99.90;;;;;;5085399;28;20474;-64
2022/11/26 04:10:58;;;;;;;20.97;8.57;;;8.50;99.90;;;;;;5085602;28;20445;-63
2022/11/26 04:13:24;;;;;;;14.73;7.40;;;8.50;99.90;;;;;;5085664;28;20484;-64
2022/11/26 04:15:51;;;;;;;13.30;6.67;;;8.50;99.90;;;;;;5086140;28;20459;-64
2022/11/26 04:18:18;;;;;;;20.50;9.37;;;8.50;99.80;;;;;;5086681;28;20439;-63
2022/11/26 04:20:45;;;;;;;14.73;8.50;;;8.50;99.70;;;;;;5085905;28;20481;-64
2022/11/26 04:23:12;;;;;;;20.43;9.00;;;8.40;99.70;;;;;;5085366;28;20477;-64
2022/11/26 04:25:38;;;;;;;17.83;8.27;;;8.40;99.70;;;;;;5086404;28;20478;-64
2022/11/26 04:28:06;;;;;;;16.00;8.10;;;8.40;99.80;;;;;;5086520;28;20450;-64
2022/11/26 04:30:33;;;;;;;18.70;7.70;;;8.40;99.80;;;;;;5077625;28;20447;-63
2022/11/26 04:33:00;;;;;;;18.57;8.20;;;8.40;99.80;;;;;;5079992;28;20466;-63
2022/11/26 04:35:27;;;;;;;30.23;9.80;;;8.40;99.80;;;;;;5084516;28;20446;-63
2022/11/26 04:37:53;;;;;;;19.63;9.23;;;8.40;99.90;;;;;;5087731;28;20838;-63
2022/11/26 04:40:20;;;;;;;21.30;8.80;;;8.40;99.80;;;;;;5089489;28;20437;-63
2022/11/26 04:42:47;;;;;;;18.47;8.37;;;8.40;99.70;;;;;;5088871;28;20468;-63
2022/11/26 04:45:15;;;;;;;16.90;8.30;;;8.40;99.70;;;;;;5089226;28;20458;-63
2022/11/26 04:47:42;;;;;;;14.33;7.43;;;8.40;99.70;;;;;;5088342;28;20450;-63
2022/11/26 04:50:10;;;;;;;25.90;9.10;;;8.40;99.70;;;;;;5088244;28;20456;-63
2022/11/26 04:52:36;;;;;;;19.53;8.90;;;8.30;99.60;;;;;;5087570;28;20471;-64
2022/11/26 04:55:04;;;;;;;22.67;8.10;;;8.30;99.60;;;;;;5087996;28;20510;-64
2022/11/26 04:57:30;;;;;;;18.53;10.00;;;8.30;99.70;;;;;;5087667;28;20447;-64
2022/11/26 04:59:57;;;;;;;14.37;7.20;;;8.30;99.60;;;;;;5087418;28;20445;-63
2022/11/26 05:02:25;;;;;;;14.77;8.07;;;8.30;99.50;;;;;;5087594;28;20484;-64
2022/11/26 05:04:52;;;;;;;16.07;8.87;;;8.30;99.30;;;;;;5086636;28;20455;-64
2022/11/26 05:07:19;;;;;;;17.77;9.80;;;8.20;99.10;;;;;;5086757;28;20452;-64
2022/11/26 05:09:45;;;;;;;13.77;8.77;;;8.20;98.90;;;;;;5086702;28;20448;-63
2022/11/26 05:12:12;;;;;;;12.37;8.13;;;8.20;98.80;;;;;;5086869;28;20457;-64
2022/11/26 05:14:39;;;;;;;12.77;7.30;;;8.20;98.60;;;;;;5086513;28;20536;-64
2022/11/26 05:17:06;;;;;;;13.03;7.50;;;8.10;98.30;;;;;;5087042;28;20459;-64
2022/11/26 05:19:34;;;;;;;14.17;8.03;;;8.10;98.40;;;;;;5084813;28;20442;-63
2022/11/26 05:22:01;;;;;;;17.23;9.20;;;8.10;97.90;;;;;;5086828;28;20572;-63
2022/11/26 05:24:27;;;;;;;18.33;7.97;;;8.00;97.70;;;;;;5086776;28;20440;-64
2022/11/26 05:26:54;;;;;;;17.73;8.33;;;8.00;97.70;;;;;;5086900;28;20444;-64
2022/11/26 05:29:21;;;;;;;16.83;7.83;;;8.00;97.80;;;;;;5086185;28;20441;-63
2022/11/26 05:31:47;;;;;;;17.83;9.03;;;8.00;97.80;;;;;;5086621;28;20445;-65
2022/11/26 05:34:14;;;;;;;16.13;9.33;;;7.90;97.60;;;;;;5087225;28;20859;-63
2022/11/26 05:36:42;;;;;;;19.03;9.33;;;7.90;97.80;;;;;;5086813;28;20463;-63
2022/11/26 05:39:09;;;;;;;17.97;9.10;;;7.90;98.00;;;;;;5087884;28;20941;-63
2022/11/26 05:41:36;;;;;;;14.27;8.27;;;7.90;98.10;;;;;;5088240;28;21007;-63
2022/11/26 05:44:02;;;;;;;15.90;8.60;;;7.90;98.00;;;;;;5087711;28;20525;-64
2022/11/26 05:46:29;;;;;;;14.50;8.70;;;7.90;97.80;;;;;;5087356;28;20957;-63
2022/11/26 05:48:56;;;;;;;15.53;7.80;;;7.80;97.60;;;;;;5086254;28;20455;-64
2022/11/26 05:51:23;;;;;;;17.40;8.57;;;7.80;97.60;;;;;;5086931;28;20448;-64
2022/11/26 05:53:51;;;;;;;19.67;9.37;;;7.80;97.50;;;;;;5086031;28;20475;-64
2022/11/26 05:56:18;;;;;;;13.77;8.33;;;7.80;97.30;;;;;;5085614;28;20452;-64
2022/11/26 05:58:44;;;;;;;12.87;7.80;;;7.80;97.30;;;;;;5085634;28;20959;-64
2022/11/26 06:01:11;;;;;;;15.60;7.70;;;7.80;97.30;;;;;;5085824;28;20468;-63
2022/11/26 06:03:38;;;;;;;13.27;8.17;;;7.70;97.20;;;;;;5085943;28;20480;-63
2022/11/26 06:06:05;;;;;;;12.80;8.17;;;7.70;97.10;;;;;;5086067;28;20445;-63
2022/11/26 06:08:32;;;;;;;16.63;9.30;;;7.70;97.10;;;;;;5084721;28;20809;-63
2022/11/26 06:11:01;;;;;;;15.17;8.90;;;7.70;97.30;;;;;;5086215;28;20429;-64
2022/11/26 06:13:27;;;;;;;13.53;8.60;;;7.70;97.40;;;;;;5085661;28;20473;-64
2022/11/26 06:15:54;;;;;;;18.00;9.87;;;7.70;97.40;;;;;;5086030;28;20451;-64
2022/11/26 06:18:21;;;;;;;19.43;9.33;;;7.60;97.40;;;;;;5085546;28;20963;-63
2022/11/26 06:20:48;;;;;;;21.67;9.13;;;7.60;97.70;;;;;;5085543;28;20458;-63
2022/11/26 06:23:15;;;;;;;19.57;9.80;;;7.60;98.10;;;;;;5085685;28;20473;-64
2022/11/26 06:25:42;;;;;;;15.33;9.70;;;7.60;98.10;;;;;;5086319;28;20443;-64
2022/11/26 06:28:10;;;;;;;20.33;9.50;;;7.60;98.10;;;;;;5085707;28;20451;-64
2022/11/26 06:30:37;;;;;;;18.20;9.70;;;7.60;98.00;;;;;;5080555;28;20444;-63
2022/11/26 06:33:04;;;;;;;24.13;10.63;;;7.60;97.90;;;;;;5075100;28;20838;-63
2022/11/26 06:35:30;;;;;;;20.30;10.80;;;7.60;98.00;;;;;;5082376;28;20455;-63
2022/11/26 06:37:57;;;;;;;15.50;10.03;;;7.50;98.20;;;;;;5085927;28;20833;-63
2022/11/26 06:40:24;;;;;;;23.10;10.77;;;7.50;98.50;;;;;;5087181;28;20429;-63
2022/11/26 06:42:52;;;;;;;18.30;10.87;;;7.50;98.60;;;;;;5086168;28;20476;-63
2022/11/26 06:45:20;;;;;;;18.83;10.70;;;7.60;98.90;;;;;;5086890;28;20452;-63
2022/11/26 06:47:47;;;;;;;18.93;11.50;;;7.60;99.00;;;;;;5086762;28;20452;-64
2022/11/26 06:50:14;;;;;;;18.20;9.80;;;7.60;99.10;;;;;;5086613;28;20808;-63
2022/11/26 06:52:41;;;;;;;18.30;11.30;;;7.60;99.20;;;;;;5087472;28;20460;-63
2022/11/26 06:55:09;;;;;;;22.93;10.93;;;7.60;99.20;;;;;;5086551;28;20448;-63
2022/11/26 06:57:36;;;;;;;17.33;11.30;;;7.60;99.10;;;;;;5086698;28;20464;-63
2022/11/26 07:00:03;;;;;;;19.40;11.67;;;7.60;99.00;;;;;;5084463;28;20455;-63
2022/11/26 07:02:31;;;;;;;22.10;10.40;;;7.60;98.90;;;;;;5084774;28;20490;-64
2022/11/26 07:04:58;;;;;;;24.57;13.00;;;7.60;98.80;;;;;;5085177;28;20954;-64
2022/11/26 07:07:25;;;;;;;15.53;10.63;;;7.70;98.90;;;;;;5085722;28;20445;-63
2022/11/26 07:09:51;;;;;;;22.47;11.60;;;7.70;98.90;;;;;;5086594;28;20516;-64
2022/11/26 07:12:18;;;;;;;19.20;11.80;;;7.60;98.70;;;;;;5084913;28;20468;-64
2022/11/26 07:14:45;;;;;;;27.60;12.37;;;7.60;98.70;;;;;;5085044;28;20453;-64
2022/11/26 07:17:12;;;;;;;18.63;9.87;;;7.60;98.60;;;;;;5084947;28;20453;-63
2022/11/26 07:19:40;;;;;;;22.27;11.10;;;7.60;98.70;;;;;;5084604;28;20437;-63
2022/11/26 07:22:06;;;;;;;17.03;10.20;;;7.60;98.70;;;;;;5083628;28;20466;-63
2022/11/26 07:24:33;;;;;;;17.50;11.00;;;7.60;98.70;;;;;;5083351;28;20449;-64
2022/11/26 07:27:00;;;;;;;19.43;11.20;;;7.60;99.10;;;;;;5080309;28;20809;-64
2022/11/26 07:29:26;;;;;;;20.70;9.80;;;7.60;98.70;;;;;;5077362;28;20460;-63
2022/11/26 07:31:54;;;;;;;20.20;9.93;;;7.60;98.70;;;;;;5082212;28;20443;-63
2022/11/26 07:34:21;;;;;;;18.23;9.10;;;7.60;98.70;;;;;;5082999;28;20459;-64
2022/11/26 07:36:49;;;;;;;16.00;7.67;;;7.60;98.80;;;;;;5082466;28;20472;-64
2022/11/26 07:39:16;;;;;;;15.60;8.40;;;7.60;98.90;;;;;;5082483;28;20445;-64
2022/11/26 07:41:42;;;;;;;22.00;9.60;;;7.60;98.90;;;;;;5085395;28;20481;-64
2022/11/26 07:44:12;;;;;;;16.70;8.20;;;7.60;99.00;;;;;;5083892;28;20491;-65
2022/11/26 07:46:39;;;;;;;21.33;8.87;;;7.60;99.00;;;;;;5083903;28;20437;-64
2022/11/26 07:49:05;;;;;;;12.60;7.63;;;7.60;99.10;;;;;;5083840;28;20441;-64
2022/11/26 07:51:35;;;;;;;14.93;8.60;;;7.60;99.10;;;;;;5084076;28;20436;-64
2022/11/26 07:54:05;;;;;;;22.90;9.00;;;7.70;99.20;;;;;;5084022;28;20466;-65
2022/11/26 07:56:32;;;;;;;15.20;9.80;;;7.70;99.10;;;;;;5083167;28;20448;-64
2022/11/26 07:59:00;;;;;;;17.03;10.70;;;7.80;99.10;;;;;;5079999;28;20445;-64
2022/11/26 08:01:28;;;;;;;16.40;10.00;;;7.80;99.00;;;;;;5083822;28;20445;-64
2022/11/26 08:03:56;;;;;;;16.83;8.23;;;7.90;98.80;;;;;;5085074;28;20913;-65
2022/11/26 08:06:25;;;;;;;16.23;8.20;;;7.90;98.60;;;;;;5086561;28;20796;-64
2022/11/26 08:08:52;;;;;;;15.47;7.23;;;7.90;98.40;;;;;;5086173;28;20442;-65
2022/11/26 08:11:21;;;;;;;16.20;7.40;;;8.00;98.30;;;;;;5086656;28;20448;-65
2022/11/26 08:13:48;;;;;;;18.57;7.50;;;8.00;98.20;;;;;;5091335;28;20478;-65
2022/11/26 08:16:16;;;;;;;10.27;6.40;;;8.00;98.20;;;;;;5089693;28;20445;-64
2022/11/26 08:18:42;;;;;;;13.60;6.77;;;8.00;98.20;;;;;;5090339;28;20547;-65
2022/11/26 08:21:09;;;;;;;15.83;7.57;;;8.00;98.20;;;;;;5091354;28;20426;-64
2022/11/26 08:23:36;;;;;;;12.97;7.40;;;8.00;98.20;;;;;;5089545;28;20486;-65
2022/11/26 08:26:07;;;;;;;13.60;7.23;;;8.10;98.60;;;;;;5087522;28;20453;-65
2022/11/26 08:28:35;;;;;;;11.30;7.40;;;8.00;98.30;;;;;;5086893;28;20426;-64
2022/11/26 08:31:02;;;;;;;10.70;6.90;;;8.10;98.40;;;;;;5085378;28;20449;-64
2022/11/26 08:33:29;;;;;;;14.13;7.00;;;8.10;98.40;;;;;;5085172;28;20459;-64
2022/11/26 08:35:56;;;;;;;12.90;6.87;;;8.10;98.50;;;;;;5085367;28;20437;-64
2022/11/26 08:38:24;;;;;;;10.33;7.10;;;8.20;98.60;;;;;;5085200;28;20494;-64
2022/11/26 08:40:53;;;;;;;9.93;6.70;;;8.20;98.60;;;;;;5085141;28;20503;-64
2022/11/26 08:43:19;;;;;;;13.87;6.17;;;8.30;98.60;;;;;;5090762;28;20492;-64
2022/11/26 08:45:53;;;;;;;10.80;6.40;;;8.30;98.70;;;;;;5092004;28;20446;-63
2022/11/26 08:48:20;;;;;;;10.43;6.37;;;8.30;98.60;;;;;;5091813;28;20455;-63
2022/11/26 08:50:47;;;;;;;11.73;5.80;;;8.30;98.70;;;;;;5091441;28;20448;-66
2022/11/26 08:53:14;;;;;;;12.80;7.10;;;8.30;98.70;;;;;;5091243;28;20467;-66
2022/11/26 08:55:41;;;;;;;15.80;7.20;;;8.30;98.90;;;;;;5089529;28;20996;-65
2022/11/26 08:58:08;;;;;;;35.17;8.87;;;8.30;99.10;;;;;;5087877;28;20231;-63
2022/11/26 09:00:35;;;;;;;11.20;6.20;;;8.40;99.00;;;;;;5085159;28;20451;-63
2022/11/26 09:03:03;;;;;;;23.53;7.60;;;8.40;98.90;;;;;;5084651;28;20491;-63
2022/11/26 09:05:31;;;;;;;15.17;6.63;;;8.50;98.90;;;;;;5084685;28;20791;-63
2022/11/26 09:07:57;;;;;;;23.93;7.90;;;8.50;99.00;;;;;;5086584;28;20445;-63
2022/11/26 09:10:24;;;;;;;11.37;5.77;;;8.50;99.10;;;;;;5088808;28;20560;-64
2022/11/26 09:12:51;;;;;;;11.50;6.50;;;8.60;99.30;;;;;;5077362;28;21009;-62
2022/11/26 09:15:18;;;;;;;19.73;7.40;;;8.70;99.20;;;;;;5085152;28;20451;-64
2022/11/26 09:17:44;;;;;;;19.37;7.80;;;8.70;99.20;;;;;;5087446;28;20435;-64
2022/11/26 09:20:13;;;;;;;16.80;6.87;;;8.80;99.20;;;;;;5088850;28;20426;-64
2022/11/26 09:22:39;;;;;;;10.20;5.33;;;8.80;99.20;;;;;;5087104;28;20497;-65
2022/11/26 09:25:07;;;;;;;12.67;5.57;;;8.90;99.20;;;;;;5087902;28;20451;-64
2022/11/26 09:27:33;;;;;;;12.93;6.10;;;9.00;99.20;;;;;;5090221;28;20438;-65
2022/11/26 09:30:00;;;;;;;19.67;6.63;;;9.10;99.00;;;;;;5090429;28;20456;-64
2022/11/26 09:32:27;;;;;;;14.27;6.10;;;9.10;98.90;;;;;;5091249;28;20478;-64
2022/11/26 09:34:54;;;;;;;12.43;6.53;;;9.30;98.90;;;;;;5090416;28;20439;-65
2022/11/26 09:37:22;;;;;;;9.10;4.90;;;9.40;98.80;;;;;;5081495;28;20474;-64
2022/11/26 09:39:49;;;;;;;9.27;5.40;;;9.50;98.70;;;;;;5085488;28;20811;-65
2022/11/26 09:42:26;;;;;;;21.73;6.10;;;9.70;98.50;;;;;;5088710;28;20490;-65
2022/11/26 09:45:03;;;;;;;10.97;5.83;;;9.70;98.20;;;;;;5090082;28;20482;-65
2022/11/26 09:47:37;;;;;;;16.37;6.13;;;9.80;97.60;;;;;;5089533;28;20439;-65
2022/11/26 09:50:18;;;;;;;13.07;6.07;;;9.90;97.30;;;;;;5090399;28;20428;-65
2022/11/26 09:52:50;;;;;;;24.93;6.13;;;9.80;97.30;;;;;;5090375;28;20468;-65
2022/11/26 09:55:20;;;;;;;17.30;5.93;;;9.80;97.40;;;;;;5091112;28;20442;-66
2022/11/26 09:57:52;;;;;;;14.10;5.43;;;9.90;97.50;;;;;;5091748;28;20435;-64
2022/11/26 10:00:25;;;;;;;14.53;6.67;;;10.00;96.70;;;;;;5091193;28;20432;-65
2022/11/26 10:02:53;;;;;;;20.33;6.50;;;10.00;96.60;;;;;;5097648;28;20489;-64
2022/11/26 10:05:23;;;;;;;38.27;7.60;;;10.10;96.70;;;;;;5091030;28;20819;-65
2022/11/26 10:08:05;;;;;;;19.03;6.90;;;10.10;96.50;;;;;;5125596;28;20458;-65
2022/11/26 10:10:41;;;;;;;16.33;5.67;;;10.20;96.50;;;;;;5127881;28;20429;-64
2022/11/26 10:13:19;;;;;;;17.73;6.57;;;10.30;96.50;;;;;;5112798;28;20477;-64
2022/11/26 10:15:53;;;;;;;18.77;6.87;;;10.40;96.30;;;;;;5090631;28;20458;-64
2022/11/26 10:18:28;;;;;;;16.47;6.60;;;10.40;96.10;;;;;;5090579;28;20438;-64
2022/11/26 10:21:09;;;;;;;16.73;6.33;;;10.50;96.10;;;;;;5090115;28;20430;-65
2022/11/26 10:23:44;;;;;;;40.47;6.80;;;10.60;96.10;;;;;;5089955;28;20513;-65
2022/11/26 10:26:15;;;;;;;11.57;5.67;;;10.60;95.90;;;;;;5090796;28;20419;-65
2022/11/26 10:28:45;;;;;;;15.63;6.00;;;10.70;95.90;;;;;;5088644;28;20419;-65
2022/11/26 10:31:19;;;;;;;12.00;6.20;;;10.80;95.70;;;;;;5087472;28;20534;-68
2022/11/26 10:33:53;;;;;;;12.30;5.20;;;10.90;96.10;;;;;;5085364;28;20486;-66
2022/11/26 10:36:24;;;;;;;17.47;6.70;;;11.00;95.60;;;;;;5085507;28;20468;-67
2022/11/26 10:38:54;;;;;;;10.97;6.30;;;11.10;95.60;;;;;;5084150;28;20438;-67
2022/11/26 10:41:23;;;;;;;7.77;5.87;;;11.20;95.40;;;;;;5086591;28;20432;-68
2022/11/26 10:43:50;;;;;;;12.37;5.63;;;11.30;95.40;;;;;;5086572;28;20492;-68
2022/11/26 10:46:31;;;;;;;12.80;5.97;;;11.40;95.30;;;;;;5086986;28;20452;-68
2022/11/26 10:49:19;;;;;;;15.10;6.00;;;11.50;95.20;;;;;;5087123;28;20439;-68
2022/11/26 10:51:47;;;;;;;12.43;6.30;;;11.50;95.00;;;;;;5086265;28;20428;-67
2022/11/26 10:54:24;;;;;;;51.10;9.93;;;11.60;94.90;;;;;;5086367;28;20437;-67
2022/11/26 10:56:52;;;;;;;12.93;6.20;;;11.70;94.70;;;;;;5085855;28;20429;-67
2022/11/26 10:59:25;;;;;;;20.03;7.20;;;11.70;94.60;;;;;;5086371;28;20470;-67
2022/11/26 11:01:53;;;;;;;21.87;8.60;;;11.80;94.50;;;;;;5086252;28;20436;-67
2022/11/26 11:04:28;;;;;;;22.30;6.80;;;11.90;94.40;;;;;;5085594;28;20856;-67
2022/11/26 11:06:55;;;;;;;15.83;6.97;;;12.00;94.30;;;;;;5086033;28;20493;-67
2022/11/26 11:09:32;;;;;;;11.30;6.60;;;12.10;94.10;;;;;;5085665;28;20448;-67
2022/11/26 11:12:18;;;;;;;14.23;6.70;;;12.20;93.90;;;;;;5085927;28;20429;-67
2022/11/26 11:14:46;;;;;;;14.90;6.83;;;12.30;93.50;;;;;;5085650;28;20432;-67
2022/11/26 11:17:27;;;;;;;15.60;6.17;;;12.40;93.40;;;;;;5085142;28;20456;-67
2022/11/26 11:19:55;;;;;;;15.17;7.07;;;12.40;93.20;;;;;;5086299;28;20433;-68
2022/11/26 11:22:22;;;;;;;19.43;7.57;;;12.50;93.10;;;;;;5086844;28;20482;-67
2022/11/26 11:24:50;;;;;;;16.10;5.47;;;12.50;93.00;;;;;;5087018;28;20455;-67
2022/11/26 11:27:26;;;;;;;10.60;5.40;;;12.50;92.80;;;;;;5087460;28;20445;-67
2022/11/26 11:29:53;;;;;;;12.10;6.03;;;12.60;92.90;;;;;;5086799;28;20441;-66
2022/11/26 11:32:34;;;;;;;12.13;5.57;;;12.60;92.90;;;;;;5087132;28;20468;-66
2022/11/26 11:35:21;;;;;;;12.47;5.57;;;12.70;92.80;;;;;;5086319;28;20427;-66
2022/11/26 11:37:49;;;;;;;20.57;6.63;;;12.70;92.60;;;;;;5085895;28;20506;-67
2022/11/26 11:40:23;;;;;;;13.67;6.70;;;12.80;92.50;;;;;;5086343;28;20449;-67
2022/11/26 11:42:53;;;;;;;14.47;5.83;;;12.90;92.40;;;;;;5086391;28;20502;-67
2022/11/26 11:45:27;;;;;;;14.20;7.00;;;12.80;92.20;;;;;;5086267;28;20475;-67
2022/11/26 11:47:57;;;;;;;12.93;5.90;;;12.80;92.30;;;;;;5089206;28;20452;-67
2022/11/26 11:50:30;;;;;;;15.67;5.90;;;12.80;92.30;;;;;;5089376;28;20477;-66
2022/11/26 11:53:08;;;;;;;14.47;6.67;;;12.80;92.30;;;;;;5081879;28;20456;-67
2022/11/26 11:55:55;;;;;;;16.63;5.20;;;12.80;92.40;;;;;;5085202;28;20432;-67
2022/11/26 11:58:39;;;;;;;20.83;6.80;;;12.80;92.40;;;;;;5090417;28;20496;-67
2022/11/26 12:01:17;;;;;;;13.90;5.63;;;12.80;92.60;;;;;;5090170;28;20809;-66
2022/11/26 12:04:07;;;;;;;13.93;5.97;;;12.70;92.50;;;;;;5090038;28;20567;-67
2022/11/26 12:06:43;;;;;;;12.70;5.03;;;12.80;92.70;;;;;;5090632;28;20434;-67
2022/11/26 12:09:22;;;;;;;13.90;5.40;;;12.70;92.70;;;;;;5089871;28;20919;-67
2022/11/26 12:11:56;;;;;;;12.30;6.93;;;12.80;92.70;;;;;;5089512;28;20907;-67
2022/11/26 12:14:28;;;;;;;11.03;5.37;;;12.70;92.60;;;;;;5089768;28;20431;-67
2022/11/26 12:17:00;;;;;;;12.00;5.73;;;12.70;92.70;;;;;;5089984;28;20435;-67
2022/11/26 12:19:36;;;;;;;14.97;5.30;;;12.70;92.90;;;;;;5088802;28;20433;-67
2022/11/26 12:22:10;;;;;;;12.03;4.50;;;12.70;92.80;;;;;;5088267;28;20428;-67
2022/11/26 12:24:44;;;;;;;16.57;4.53;;;12.70;92.90;;;;;;5088562;28;20468;-67
2022/11/26 12:27:23;;;;;;;14.33;4.80;;;12.70;92.90;;;;;;5088520;28;20433;-67
2022/11/26 12:29:55;;;;;;;13.83;4.80;;;12.70;93.00;;;;;;5088139;28;20437;-67
2022/11/26 12:32:27;;;;;;;10.03;4.77;;;12.80;93.20;;;;;;5088718;28;20476;-68
2022/11/26 12:34:58;;;;;;;15.73;5.27;;;12.90;93.40;;;;;;5087931;28;20440;-67
2022/11/26 12:37:30;;;;;;;10.50;4.50;;;13.00;92.90;;;;;;5088371;28;20459;-67
2022/11/26 12:40:02;;;;;;;14.43;4.43;;;13.00;92.60;;;;;;5088923;28;20898;-67
2022/11/26 12:42:40;;;;;;;13.20;4.50;;;13.10;92.50;;;;;;5083781;28;20476;-67
2022/11/26 12:45:18;;;;;;;16.83;6.07;;;13.10;92.50;;;;;;5082848;28;20451;-67
2022/11/26 12:47:51;;;;;;;12.17;5.07;;;13.10;92.80;;;;;;5087412;28;20440;-67
2022/11/26 12:50:23;;;;;;;13.63;5.10;;;13.00;92.50;;;;;;5087976;28;20436;-67
2022/11/26 12:52:55;;;;;;;18.40;4.70;;;13.00;92.50;;;;;;5088261;28;20469;-67
2022/11/26 12:55:28;;;;;;;11.13;4.90;;;13.00;92.60;;;;;;5088683;28;20441;-67